Time,TemperatureF,DewpointF,PressureIn,WindDirection,WindDirectionDegrees,WindSpeedMPH,WindSpeedGustMPH,Humidity,HourlyPrecipIn,Conditions,Clouds,dailyrainin,SoftwareType,DateUTC
2013-03-29 00:02:00,65.0,19.0,-100.00,SSW,212,7.0,13.0,16,-99.99,,,-99.99,,2013-03-29 00:02:00,
2013-03-29 00:11:00,66.0,17.0,-100.00,SSW,198,12.0,18.0,15,-99.99,,,-99.99,,2013-03-29 00:11:00,
2013-03-29 00:21:00,66.0,17.0,-100.00,SSW,203,9.0,16.0,15,-99.99,,,-99.99,,2013-03-29 00:21:00,
2013-03-29 00:32:00,66.0,17.0,-100.00,SSW,203,9.0,16.0,15,-99.99,,,-99.99,,2013-03-29 00:32:00,
2013-03-29 00:42:00,66.0,17.0,-100.00,SSW,203,9.0,16.0,15,-99.99,,,-99.99,,2013-03-29 00:42:00,
2013-03-29 00:52:00,63.0,23.0,-100.00,South,188,7.0,12.0,21,-99.99,,,-99.99,,2013-03-29 00:52:00,
2013-03-29 01:02:00,63.0,23.0,-100.00,South,188,7.0,12.0,21,-99.99,,,-99.99,,2013-03-29 01:02:00,
2013-03-29 01:12:00,64.0,20.0,-100.00,South,188,11.0,13.0,17,-99.99,,,-99.99,,2013-03-29 01:12:00,
2013-03-29 01:22:00,64.0,20.0,-100.00,South,188,11.0,13.0,17,-99.99,,,-99.99,,2013-03-29 01:22:00,
2013-03-29 01:31:00,63.0,21.0,-100.00,South,185,10.0,12.0,19,-99.99,,,-99.99,,2013-03-29 01:31:00,
2013-03-29 01:42:00,62.0,24.0,-100.00,South,182,7.0,8.0,23,-99.99,,,-99.99,,2013-03-29 01:42:00,
2013-03-29 01:52:00,61.0,24.0,-100.00,South,182,4.0,6.0,24,-99.99,,,-99.99,,2013-03-29 01:52:00,
2013-03-29 02:02:00,60.0,24.0,-100.00,SSE,160,6.0,7.0,24,-99.99,,,-99.99,,2013-03-29 02:02:00,
2013-03-29 02:11:00,59.0,23.0,-100.00,SE,146,5.0,7.0,25,-99.99,,,-99.99,,2013-03-29 02:11:00,
2013-03-29 02:21:00,59.0,23.0,-100.00,SE,146,5.0,7.0,25,-99.99,,,-99.99,,2013-03-29 02:21:00,
2013-03-29 02:32:00,59.0,23.0,-100.00,SE,141,5.0,7.0,25,-99.99,,,-99.99,,2013-03-29 02:32:00,
2013-03-29 02:42:00,59.0,23.0,-100.00,SE,135,6.0,9.0,25,-99.99,,,-99.99,,2013-03-29 02:42:00,
2013-03-29 02:52:00,58.0,24.0,-100.00,SSE,153,3.0,6.0,26,-99.99,,,-99.99,,2013-03-29 02:52:00,
2013-03-29 03:02:00,57.0,24.0,-100.00,SSE,147,2.0,3.0,27,-99.99,,,-99.99,,2013-03-29 03:02:00,
2013-03-29 03:12:00,57.0,25.0,-100.00,WNW,293,3.0,4.0,29,-99.99,,,-99.99,,2013-03-29 03:12:00,
2013-03-29 03:21:00,60.0,21.0,-100.00,NW,321,2.0,8.0,22,-99.99,,,-99.99,,2013-03-29 03:21:00,
2013-03-29 03:32:00,58.0,23.0,-100.00,ENE,67,4.0,5.0,25,-99.99,,,-99.99,,2013-03-29 03:32:00,
2013-03-29 03:42:00,58.0,23.0,-100.00,East,89,5.0,6.0,25,-99.99,,,-99.99,,2013-03-29 03:42:00,
2013-03-29 03:52:00,58.0,22.0,-100.00,NNE,32,3.0,4.0,24,-99.99,,,-99.99,,2013-03-29 03:52:00,
2013-03-29 04:02:00,56.0,23.0,-100.00,ENE,71,5.0,5.0,28,-99.99,,,-99.99,,2013-03-29 04:02:00,
2013-03-29 04:12:00,55.0,24.0,-100.00,North,355,4.0,6.0,30,-99.99,,,-99.99,,2013-03-29 04:12:00,
2013-03-29 04:22:00,54.0,24.0,-100.00,ENE,59,5.0,5.0,29,-99.99,,,-99.99,,2013-03-29 04:22:00,
2013-03-29 04:32:00,56.0,23.0,-100.00,ENE,76,6.0,7.0,28,-99.99,,,-99.99,,2013-03-29 04:32:00,
2013-03-29 04:42:00,55.0,24.0,-100.00,North,349,3.0,5.0,29,-99.99,,,-99.99,,2013-03-29 04:42:00,
2013-03-29 04:52:00,55.0,23.0,-100.00,North,353,1.0,2.0,28,-99.99,,,-99.99,,2013-03-29 04:52:00,
2013-03-29 05:02:00,55.0,26.0,-100.00,South,177,12.0,16.0,32,-99.99,,,-99.99,,2013-03-29 05:02:00,
2013-03-29 05:12:00,54.0,29.0,-100.00,South,172,10.0,23.0,37,-99.99,,,-99.99,,2013-03-29 05:12:00,
2013-03-29 05:22:00,54.0,29.0,-100.00,South,172,10.0,23.0,37,-99.99,,,-99.99,,2013-03-29 05:22:00,
2013-03-29 05:32:00,54.0,32.0,-100.00,SSE,159,13.0,19.0,41,-99.99,,,-99.99,,2013-03-29 05:32:00,
2013-03-29 05:42:00,54.0,32.0,-100.00,SSE,149,12.0,13.0,42,-99.99,,,-99.99,,2013-03-29 05:42:00,
2013-03-29 05:52:00,53.0,31.0,-100.00,SSE,156,9.0,10.0,42,-99.99,,,-99.99,,2013-03-29 05:52:00,
2013-03-29 06:02:00,52.0,31.0,-100.00,SSE,152,4.0,5.0,43,-99.99,,,-99.99,,2013-03-29 06:02:00,
2013-03-29 06:12:00,51.0,31.0,-100.00,ESE,115,2.0,3.0,45,-99.99,,,-99.99,,2013-03-29 06:12:00,
2013-03-29 06:22:00,51.0,31.0,-100.00,SE,142,5.0,7.0,44,-99.99,,,-99.99,,2013-03-29 06:22:00,
2013-03-29 06:32:00,52.0,32.0,-100.00,SE,137,10.0,14.0,45,-99.99,,,-99.99,,2013-03-29 06:32:00,
2013-03-29 06:42:00,52.0,31.0,-100.00,SSE,152,9.0,13.0,43,-99.99,,,-99.99,,2013-03-29 06:42:00,
2013-03-29 06:52:00,52.0,32.0,-100.00,SE,145,8.0,10.0,46,-99.99,,,-99.99,,2013-03-29 06:52:00,
2013-03-29 07:02:00,52.0,32.0,-100.00,SSE,153,10.0,12.0,46,-99.99,,,-99.99,,2013-03-29 07:02:00,
2013-03-29 07:12:00,51.0,33.0,-100.00,South,169,6.0,11.0,49,-99.99,,,-99.99,,2013-03-29 07:12:00,
2013-03-29 07:21:00,50.0,33.0,-100.00,SE,125,8.0,9.0,52,-99.99,,,-99.99,,2013-03-29 07:21:00,
2013-03-29 07:32:00,50.0,33.0,-100.00,SE,125,9.0,11.0,50,-99.99,,,-99.99,,2013-03-29 07:32:00,
2013-03-29 07:42:00,52.0,32.0,-100.00,SE,134,8.0,11.0,46,-99.99,,,-99.99,,2013-03-29 07:42:00,
2013-03-29 07:52:00,51.0,32.0,-100.00,SE,137,8.0,10.0,47,-99.99,,,-99.99,,2013-03-29 07:52:00,
2013-03-29 08:01:00,51.0,32.0,-100.00,SE,140,7.0,8.0,48,-99.99,,,-99.99,,2013-03-29 08:01:00,
2013-03-29 08:12:00,50.0,32.0,-100.00,SE,134,7.0,8.0,49,-99.99,,,-99.99,,2013-03-29 08:12:00,
2013-03-29 08:22:00,48.0,31.0,-100.00,ESE,117,6.0,7.0,51,-99.99,,,-99.99,,2013-03-29 08:22:00,
2013-03-29 08:32:00,49.0,31.0,-100.00,NE,55,7.0,7.0,48,-99.99,,,-99.99,,2013-03-29 08:32:00,
2013-03-29 08:42:00,51.0,31.0,-100.00,ENE,68,4.0,5.0,44,-99.99,,,-99.99,,2013-03-29 08:42:00,
2013-03-29 08:52:00,52.0,29.0,-100.00,ENE,75,3.0,4.0,40,-99.99,,,-99.99,,2013-03-29 08:52:00,
2013-03-29 09:02:00,47.0,30.0,-100.00,ESE,123,4.0,5.0,50,-99.99,,,-99.99,,2013-03-29 09:02:00,
2013-03-29 09:12:00,46.0,30.0,-100.00,East,101,4.0,5.0,52,-99.99,,,-99.99,,2013-03-29 09:12:00,
2013-03-29 09:22:00,46.0,30.0,-100.00,SE,128,1.0,4.0,53,-99.99,,,-99.99,,2013-03-29 09:22:00,
2013-03-29 09:32:00,46.0,30.0,-100.00,ENE,76,1.0,2.0,53,-99.99,,,-99.99,,2013-03-29 09:32:00,
2013-03-29 09:42:00,47.0,31.0,-100.00,East,97,3.0,4.0,54,-99.99,,,-99.99,,2013-03-29 09:42:00,
2013-03-29 09:52:00,45.0,31.0,-100.00,ESE,116,9.0,9.0,57,-99.99,,,-99.99,,2013-03-29 09:52:00,
2013-03-29 10:02:00,47.0,31.0,-100.00,ESE,123,9.0,9.0,51,-99.99,,,-99.99,,2013-03-29 10:02:00,
2013-03-29 10:12:00,45.0,31.0,-100.00,SSE,159,4.0,5.0,56,-99.99,,,-99.99,,2013-03-29 10:12:00,
2013-03-29 10:22:00,43.0,30.0,-100.00,SE,128,2.0,2.0,61,-99.99,,,-99.99,,2013-03-29 10:22:00,
2013-03-29 10:33:00,45.0,31.0,-100.00,SSE,162,3.0,5.0,57,-99.99,,,-99.99,,2013-03-29 10:33:00,
2013-03-29 10:42:00,47.0,31.0,-100.00,SE,144,6.0,8.0,53,-99.99,,,-99.99,,2013-03-29 10:42:00,
2013-03-29 10:52:00,44.0,31.0,-100.00,SSE,165,4.0,5.0,58,-99.99,,,-99.99,,2013-03-29 10:52:00,
2013-03-29 11:02:00,45.0,31.0,-100.00,SE,135,6.0,7.0,56,-99.99,,,-99.99,,2013-03-29 11:02:00,
2013-03-29 11:12:00,45.0,31.0,-100.00,SE,135,6.0,7.0,56,-99.99,,,-99.99,,2013-03-29 11:12:00,
2013-03-29 11:22:00,44.0,31.0,-100.00,SE,142,2.0,3.0,58,-99.99,,,-99.99,,2013-03-29 11:22:00,
2013-03-29 11:32:00,44.0,31.0,-100.00,East,85,1.0,2.0,58,-99.99,,,-99.99,,2013-03-29 11:32:00,
2013-03-29 11:42:00,48.0,32.0,-100.00,ENE,78,3.0,3.0,53,-99.99,,,-99.99,,2013-03-29 11:42:00,
2013-03-29 11:52:00,48.0,31.0,-100.00,NE,47,5.0,5.0,52,-99.99,,,-99.99,,2013-03-29 11:52:00,
2013-03-29 12:02:00,48.0,31.0,-100.00,NE,47,5.0,5.0,52,-99.99,,,-99.99,,2013-03-29 12:02:00,
2013-03-29 12:12:00,43.0,31.0,-100.00,South,186,4.0,7.0,60,-99.99,,,-99.99,,2013-03-29 12:12:00,
2013-03-29 12:22:00,43.0,31.0,-100.00,South,186,4.0,7.0,60,-99.99,,,-99.99,,2013-03-29 12:22:00,
2013-03-29 12:32:00,44.0,31.0,-100.00,South,169,3.0,4.0,60,-99.99,,,-99.99,,2013-03-29 12:32:00,
2013-03-29 12:42:00,44.0,31.0,-100.00,SE,139,4.0,4.0,59,-99.99,,,-99.99,,2013-03-29 12:42:00,
2013-03-29 12:51:00,46.0,31.0,-100.00,SE,133,7.0,7.0,56,-99.99,,,-99.99,,2013-03-29 12:51:00,
2013-03-29 13:02:00,41.0,31.0,-100.00,SSE,149,5.0,6.0,67,-99.99,,,-99.99,,2013-03-29 13:02:00,
2013-03-29 13:12:00,41.0,31.0,-100.00,SSE,149,5.0,6.0,67,-99.99,,,-99.99,,2013-03-29 13:12:00,
2013-03-29 13:22:00,43.0,32.0,-100.00,SE,145,9.0,11.0,63,-99.99,,,-99.99,,2013-03-29 13:22:00,
2013-03-29 13:32:00,43.0,32.0,-100.00,SE,145,9.0,11.0,63,-99.99,,,-99.99,,2013-03-29 13:32:00,
2013-03-29 13:42:00,42.0,33.0,-100.00,SE,145,10.0,11.0,69,-99.99,,,-99.99,,2013-03-29 13:42:00,
2013-03-29 13:52:00,42.0,33.0,-100.00,SE,145,10.0,11.0,69,-99.99,,,-99.99,,2013-03-29 13:52:00,
2013-03-29 14:02:00,42.0,33.0,-100.00,SE,132,8.0,10.0,69,-99.99,,,-99.99,,2013-03-29 14:02:00,
2013-03-29 14:12:00,42.0,32.0,-100.00,SE,129,9.0,10.0,67,-99.99,,,-99.99,,2013-03-29 14:12:00,
2013-03-29 14:21:00,43.0,32.0,-100.00,SE,142,9.0,11.0,64,-99.99,,,-99.99,,2013-03-29 14:21:00,
2013-03-29 14:32:00,43.0,32.0,-100.00,SSE,153,8.0,10.0,65,-99.99,,,-99.99,,2013-03-29 14:32:00,
2013-03-29 14:42:00,42.0,32.0,-100.00,SSE,152,7.0,8.0,66,-99.99,,,-99.99,,2013-03-29 14:42:00,
2013-03-29 14:52:00,42.0,32.0,-100.00,SSE,152,6.0,8.0,67,-99.99,,,-99.99,,2013-03-29 14:52:00,
2013-03-29 15:02:00,44.0,32.0,-100.00,SSE,165,6.0,10.0,61,-99.99,,,-99.99,,2013-03-29 15:02:00,
2013-03-29 15:12:00,45.0,33.0,-100.00,SSW,211,2.0,4.0,62,-99.99,,,-99.99,,2013-03-29 15:12:00,
2013-03-29 15:22:00,46.0,32.0,-100.00,South,185,1.0,2.0,59,-99.99,,,-99.99,,2013-03-29 15:22:00,
2013-03-29 15:33:00,47.0,33.0,-100.00,South,174,6.0,6.0,58,-99.99,,,-99.99,,2013-03-29 15:33:00,
2013-03-29 15:42:00,47.0,33.0,-100.00,South,177,5.0,7.0,57,-99.99,,,-99.99,,2013-03-29 15:42:00,
2013-03-29 15:52:00,48.0,33.0,-100.00,SSE,165,4.0,6.0,55,-99.99,,,-99.99,,2013-03-29 15:52:00,
2013-03-29 16:03:00,50.0,31.0,-100.00,SSE,162,5.0,7.0,47,-99.99,,,-99.99,,2013-03-29 16:03:00,
2013-03-29 16:12:00,52.0,30.0,-100.00,SSE,159,5.0,6.0,42,-99.99,,,-99.99,,2013-03-29 16:12:00,
2013-03-29 16:23:00,53.0,30.0,-100.00,SSE,165,4.0,5.0,41,-99.99,,,-99.99,,2013-03-29 16:23:00,
2013-03-29 16:32:00,52.0,29.0,-100.00,South,182,4.0,7.0,40,-99.99,,,-99.99,,2013-03-29 16:32:00,
2013-03-29 16:42:00,52.0,30.0,-100.00,SSW,196,4.0,5.0,42,-99.99,,,-99.99,,2013-03-29 16:42:00,
2013-03-29 16:52:00,54.0,30.0,-100.00,SSE,167,3.0,5.0,40,-99.99,,,-99.99,,2013-03-29 16:52:00,
2013-03-29 17:02:00,55.0,30.0,-100.00,SE,133,2.0,5.0,39,-99.99,,,-99.99,,2013-03-29 17:02:00,
2013-03-29 17:12:00,55.0,30.0,-100.00,South,185,4.0,5.0,37,-99.99,,,-99.99,,2013-03-29 17:12:00,
2013-03-29 17:22:00,56.0,30.0,-100.00,SSE,167,5.0,6.0,35,-99.99,,,-99.99,,2013-03-29 17:22:00,
2013-03-29 17:32:00,57.0,29.0,-100.00,South,183,5.0,7.0,34,-99.99,,,-99.99,,2013-03-29 17:32:00,
2013-03-29 17:42:00,58.0,28.0,-100.00,SSE,159,7.0,9.0,31,-99.99,,,-99.99,,2013-03-29 17:42:00,
2013-03-29 17:52:00,59.0,27.0,-100.00,SSW,192,6.0,7.0,29,-99.99,,,-99.99,,2013-03-29 17:52:00,
2013-03-29 18:02:00,59.0,28.0,-100.00,SSW,203,5.0,7.0,30,-99.99,,,-99.99,,2013-03-29 18:02:00,
2013-03-29 18:12:00,60.0,28.0,-100.00,SSW,209,2.0,6.0,28,-99.99,,,-99.99,,2013-03-29 18:12:00,
2013-03-29 18:22:00,60.0,28.0,-100.00,NNW,334,1.0,4.0,30,-99.99,,,-99.99,,2013-03-29 18:22:00,
2013-03-29 18:32:00,61.0,29.0,-100.00,SSW,207,4.0,7.0,30,-99.99,,,-99.99,,2013-03-29 18:32:00,
2013-03-29 18:42:00,62.0,27.0,-100.00,SE,146,4.0,5.0,26,-99.99,,,-99.99,,2013-03-29 18:42:00,
2013-03-29 18:52:00,62.0,27.0,-100.00,WNW,288,0.0,4.0,26,-99.99,,,-99.99,,2013-03-29 18:52:00,
2013-03-29 19:02:00,61.0,29.0,-100.00,NE,38,0.0,3.0,29,-99.99,,,-99.99,,2013-03-29 19:02:00,
2013-03-29 19:12:00,63.0,29.0,-100.00,NNW,342,3.0,4.0,27,-99.99,,,-99.99,,2013-03-29 19:12:00,
2013-03-29 19:22:00,62.0,27.0,-100.00,SSE,156,4.0,8.0,26,-99.99,,,-99.99,,2013-03-29 19:22:00,
2013-03-29 19:32:00,62.0,28.0,-100.00,East,92,4.0,6.0,28,-99.99,,,-99.99,,2013-03-29 19:32:00,
2013-03-29 19:42:00,61.0,28.0,-100.00,NNW,336,8.0,10.0,28,-99.99,,,-99.99,,2013-03-29 19:42:00,
2013-03-29 19:52:00,60.0,28.0,-100.00,NW,326,6.0,9.0,29,-99.99,,,-99.99,,2013-03-29 19:52:00,
2013-03-29 20:02:00,60.0,29.0,-100.00,NW,326,3.0,7.0,30,-99.99,,,-99.99,,2013-03-29 20:02:00,
2013-03-29 20:12:00,55.0,35.0,-100.00,West,274,24.0,31.0,46,-99.99,,,-99.99,,2013-03-29 20:12:00,
2013-03-29 20:22:00,53.0,37.0,-100.00,NW,324,4.0,15.0,54,-99.99,,,-99.99,,2013-03-29 20:22:00,
2013-03-29 20:32:00,53.0,37.0,-100.00,NNW,340,5.0,7.0,54,-99.99,,,-99.99,,2013-03-29 20:32:00,
2013-03-29 20:42:00,52.0,39.0,-100.00,East,87,7.0,8.0,60,-99.99,,,-99.99,,2013-03-29 20:42:00,
2013-03-29 20:52:00,54.0,41.0,-100.00,East,91,11.0,17.0,60,-99.99,,,-99.99,,2013-03-29 20:52:00,
2013-03-29 21:02:00,57.0,36.0,-100.00,ENE,66,7.0,20.0,44,-99.99,,,-99.99,,2013-03-29 21:02:00,
2013-03-29 21:12:00,58.0,32.0,-100.00,ENE,68,8.0,17.0,37,-99.99,,,-99.99,,2013-03-29 21:12:00,
2013-03-29 21:22:00,61.0,30.0,-100.00,North,3,7.0,11.0,31,-99.99,,,-99.99,,2013-03-29 21:22:00,
2013-03-29 21:32:00,59.0,32.0,-100.00,NW,326,11.0,12.0,35,-99.99,,,-99.99,,2013-03-29 21:32:00,
2013-03-29 21:42:00,57.0,34.0,-100.00,West,268,8.0,13.0,42,-99.99,,,-99.99,,2013-03-29 21:42:00,
2013-03-29 21:52:00,56.0,32.0,-100.00,SW,223,10.0,23.0,39,-99.99,,,-99.99,,2013-03-29 21:52:00,
2013-03-29 22:02:00,56.0,34.0,-100.00,NW,307,5.0,12.0,43,-99.99,,,-99.99,,2013-03-29 22:02:00,
2013-03-29 22:12:00,56.0,34.0,-100.00,NE,44,4.0,6.0,43,-99.99,,,-99.99,,2013-03-29 22:12:00,
2013-03-29 22:22:00,55.0,35.0,-100.00,West,276,7.0,11.0,46,-99.99,,,-99.99,,2013-03-29 22:22:00,
2013-03-29 22:33:00,55.0,36.0,-100.00,WNW,295,5.0,9.0,48,-99.99,,,-99.99,,2013-03-29 22:33:00,
2013-03-29 22:42:00,55.0,37.0,-100.00,NE,50,8.0,10.0,49,-99.99,,,-99.99,,2013-03-29 22:42:00,
2013-03-29 22:52:00,55.0,34.0,-100.00,East,83,9.0,14.0,45,-99.99,,,-99.99,,2013-03-29 22:52:00,
2013-03-29 23:02:00,56.0,33.0,-100.00,East,80,12.0,18.0,40,-99.99,,,-99.99,,2013-03-29 23:02:00,
2013-03-29 23:12:00,57.0,32.0,-100.00,ESE,113,9.0,15.0,38,-99.99,,,-99.99,,2013-03-29 23:12:00,
2013-03-29 23:22:00,59.0,28.0,-100.00,South,188,3.0,6.0,30,-99.99,,,-99.99,,2013-03-29 23:22:00,
2013-03-29 23:32:00,59.0,28.0,-100.00,South,188,3.0,6.0,30,-99.99,,,-99.99,,2013-03-29 23:32:00,
2013-03-29 23:42:00,59.0,28.0,-100.00,West,280,1.0,7.0,29,-99.99,,,-99.99,,2013-03-29 23:42:00,
2013-03-29 23:52:00,60.0,30.0,-100.00,West,274,2.0,4.0,32,-99.99,,,-99.99,,2013-03-29 23:52:00,